• Join FlightAware (Why Join?)
  • Login
  • US Flag 
01:19AM EDT


 

Airport Tracker/Info


-or-


 

Live Flight TrackerFlight Track Log ✈ SWA34 ✈ 23-Apr-2013 ✈ KSTL - KCMH

Flight Track Log - Related Links

Times and Time Zones

All times are in EDT time to prevent confusion due to time zone crossing. See the SWA34 flight status page for this flight to view local times or setup timezone preferences in your user account.

Time Position Orientation Groundspeed Altitude Reporting Facility
EDT Latitude Longitude Course Direction KTS MPH feet Rate Location/Type
08:13PM 38.7708 -90.3350 51° Northeast 158 182 2,400  Level FAA TRACON SMA TRACON (SMA)
08:14PM 38.7864 -90.3414 342° North 181 208 3,000 1,920 Climbing FAA TRACON SMA TRACON (SMA)
08:14PM 38.8075 -90.3478 347° North 205 236 3,700 1,260 Climbing FAA TRACON SMA TRACON (SMA)
08:14PM 38.8258 -90.3358 27° Northeast 239 275 3,900 1,200 Climbing FAA TRACON SMA TRACON (SMA)
08:15PM 38.8356 -90.3081 66° East 278 320 4,500 1,800 Climbing FAA TRACON SMA TRACON (SMA)
08:15PM 38.8339 -90.2750 94° East 301 346 5,100 2,940 Climbing FAA TRACON SMA TRACON (SMA)
08:16PM 38.8250 -90.1994 99° East 312 359 7,500 3,660 Climbing FAA TRACON SMA TRACON (SMA)
08:16PM 38.8231 -90.1664 94° East 306 352 8,800 3,960 Climbing FAA TRACON SMA TRACON (SMA)
08:16PM 38.8217 -90.1256 92° East 298 343 10,100 2,820 Climbing FAA TRACON SMA TRACON (SMA)
08:17PM 38.8206 -90.0917 92° East 304 350 10,700 1,860 Climbing FAA TRACON SMA TRACON (SMA)
08:17PM 38.8189 -90.0558 93° East 321 369 11,400 2,700 Climbing FAA TRACON SMA TRACON (SMA)
08:17PM 38.8161 -90.0103 94° East 334 384 12,500 2,580 Climbing FAA TRACON SMA TRACON (SMA)
08:18PM 38.8144 -89.9728 93° East 342 394 13,100 1,440 Climbing FAA TRACON SMA TRACON (SMA)
08:18PM 38.8122 -89.9328 94° East 359 413 13,500 1,860 Climbing FAA TRACON SMA TRACON (SMA)
08:18PM 38.8111 -89.8819 92° East 374 430 14,400 2,460 Climbing FAA TRACON SMA TRACON (SMA)
08:19PM 38.8086 -89.8394 94° East 385 443 15,100 2,280 Climbing FAA TRACON SMA TRACON (SMA)
08:19PM 38.8061 -89.7964 94° East 392 451 15,900 2,700 Climbing FAA TRACON SMA TRACON (SMA)
08:19PM 38.8042 -89.7422 93° East 398 458 16,900 2,580 Climbing FAA TRACON SMA TRACON (SMA)
08:20PM 38.8000 -89.6989 97° East 397 457 17,700 1,860 Climbing FAA TRACON SMA TRACON (SMA)
08:20PM 38.7997 -89.6558 90° East 397 457 18,300 2,100 Climbing FAA TRACON SMA TRACON (SMA)
08:20PM 38.7969 -89.6000 94° East 406 467 19,200 2,400 Climbing FAA TRACON SMA TRACON (SMA)
08:21PM 38.7936 -89.5547 95° East 413 475 19,800 2,100 Climbing FAA TRACON SMA TRACON (SMA)
08:21PM 38.7933 -89.5094 90° East 414 476 20,500 2,220 Climbing FAA TRACON SMA TRACON (SMA)
08:21PM 38.7914 -89.4514 92° East 422 486 21,300 1,860 Climbing FAA TRACON SMA TRACON (SMA)
08:22PM 38.7964 -89.4044 82° East 429 494 21,800 1,500 Climbing FAA TRACON SMA TRACON (SMA)
08:22PM 38.8025 -89.3569 81° East 440 506 22,300 1,680 Climbing FAA TRACON SMA TRACON (SMA)
08:22PM 38.8100 -89.2964 81° East 447 514 22,900 1,560 Climbing FAA TRACON SMA TRACON (SMA)
08:23PM 38.8117 -89.2467 88° East 452 520 23,400 1,560 Climbing FAA TRACON SMA TRACON (SMA)
08:23PM 38.8150 -89.1967 85° East 455 524 24,000 1,980 Climbing FAA TRACON SMA TRACON (SMA)
08:23PM 38.8172 -89.1339 87° East 459 528 24,700 1,980 Climbing FAA TRACON SMA TRACON (SMA)
08:24PM 38.8203 -89.0833 86° East 460 529 25,300 1,020 Climbing FAA TRACON SMA TRACON (SMA)
08:24PM 38.8194 -89.0708 95° East 460 529 25,400 1,500 Climbing FAA TRACON SMA TRACON (SMA)
08:25PM 38.8200 -88.9708 90° East 461 531 27,000 1,560 Climbing Kansas City Center
08:26PM 38.8078 -88.8056 95° East 462 532 28,300 1,260 Climbing Kansas City Center
08:27PM 38.7864 -88.6378 99° East 469 540 29,700 1,380 Climbing Kansas City Center
08:28PM 38.7703 -88.4686 97° East 470 541 31,100 1,200 Climbing Kansas City Center
08:29PM 38.8011 -88.3000 77° East 492 566 32,300 1,080 Climbing Kansas City Center
08:30PM 38.8597 -88.1447 64° Northeast 484 557 33,400 1,200 Climbing Kansas City Center
08:31PM 38.9183 -87.9931 64° Northeast 483 556 34,700 780 Climbing Indianapolis Center
08:32PM 38.9767 -87.8372 64° Northeast 482 555 35,000 120 Climbing Indianapolis Center
08:33PM 39.0372 -87.6819 63° Northeast 482 555 35,000  Level Indianapolis Center
08:34PM 39.0961 -87.5242 64° Northeast 485 558 35,000  Level Indianapolis Center
08:35PM 39.1661 -87.3386 64° Northeast 486 559 35,000  Level Indianapolis Center
08:36PM 39.2250 -87.1800 64° Northeast 489 563 35,000  Level Indianapolis Center
08:37PM 39.2828 -87.0206 65° Northeast 488 562 35,000  Level Indianapolis Center
08:38PM 39.3433 -86.8636 63° Northeast 487 560 35,000  Level Indianapolis Center
08:39PM 39.4014 -86.7050 65° Northeast 487 560 35,000  Level Indianapolis Center
08:40PM 39.4481 -86.5414 70° East 486 559 35,000  Level Indianapolis Center
08:41PM 39.4906 -86.3758 72° East 488 562 35,000  Level Indianapolis Center
08:42PM 39.5403 -86.1836 71° East 487 560 35,000  Level Indianapolis Center
08:43PM 39.5825 -86.0181 72° East 488 562 35,000  Level Indianapolis Center
08:44PM 39.6244 -85.8533 72° East 485 558 35,000 -960 Level Indianapolis Center
08:45PM 39.6814 -85.6922 65° Northeast 491 565 33,100 -2,220 Descending Indianapolis Center
08:46PM 39.7417 -85.5336 64° Northeast 489 563 30,600 -2,040 Descending Indianapolis Center
08:47PM 39.7983 -85.3803 64° Northeast 471 542 29,000 -840 Descending Indianapolis Center
08:48PM 39.8567 -85.2294 63° Northeast 465 535 29,000 -420 Level Indianapolis Center
08:49PM 39.9128 -85.0733 65° Northeast 474 545 28,200 -900 Descending Indianapolis Center
08:50PM 39.9808 -84.8886 64° Northeast 479 551 27,200 -960 Descending Indianapolis Center
08:51PM 40.0331 -84.7447 65° Northeast 481 554 26,300 -1,020 Descending Indianapolis Center
08:52PM 40.0925 -84.5856 64° Northeast 481 554 25,200 -1,140 Descending Indianapolis Center
08:53PM 40.1403 -84.4275 68° East 465 535 24,100 -1,020 Descending Indianapolis Center
08:54PM 40.1447 -84.2578 88° East 460 529 23,200 -1,080 Descending Indianapolis Center
08:55PM 40.1469 -84.0936 89° East 449 517 21,900 -1,980 Descending Indianapolis Center
08:56PM 40.1475 -83.9292 90° East 448 516 19,200 -2,580 Descending Indianapolis Center
08:57PM 40.1506 -83.7672 89° East 440 506 16,700 -2,400 Descending Indianapolis Center
08:58PM 40.1542 -83.6128 88° East 421 484 14,300 -2,460 Descending Indianapolis Center
08:59PM 40.1575 -83.5092 88° East 400 460 12,800 -2,220 Descending Indianapolis Center
08:59PM 40.1589 -83.4664 88° East 397 457 12,100 -1,620 Descending Indianapolis Center
09:00PM 40.1639 -83.3625 86° East 382 440 11,200 -1,500 Descending Indianapolis Center
09:00PM 40.1583 -83.3044 97° East 375 432 10,600 -1,260 Descending Indianapolis Center
09:01PM 40.1506 -83.2517 101° East 348 400 10,100 -1,200 Descending Indianapolis Center
09:02PM 40.1411 -83.1808 100° East 345 397 9,400 -1,200 Descending Indianapolis Center
09:02PM 40.1328 -83.1186 100° East 310 357 8,800 -1,320 Descending Indianapolis Center
09:03PM 40.1264 -83.0697 100° East 312 359 8,100 -1,500 Descending Indianapolis Center
09:03PM 40.1194 -83.0081 98° East 304 350 7,300 -1,620 Descending Indianapolis Center
09:04PM 40.1136 -82.9603 99° East 303 349 6,500 -1,440 Descending Indianapolis Center
09:04PM 40.1072 -82.9111 100° East 295 339 6,000 -1,020 Descending Indianapolis Center
09:05PM 40.1039 -82.8550 94° East 291 335 5,500 -720 Descending Indianapolis Center
09:06PM 40.0722 -82.7822 120° Southeast 237 273 4,900 -780 Descending Indianapolis Center
09:06PM 40.0544 -82.7581 134° Southeast 194 223 4,400 -1,140 Descending Indianapolis Center
09:07PM 40.0275 -82.7531 172° South 204 235 3,800 -840 Descending Indianapolis Center
09:07PM 40.0067 -82.7556 185° South 135 155 3,500 -1,140 Descending Indianapolis Center
09:08PM 39.9894 -82.7569 184° South 161 185 2,700 -1,320 Descending Indianapolis Center
09:08PM 39.9861 -82.7806 260° West 122 140 2,200 -780 Descending Indianapolis Center
09:09PM 39.9900 -82.8033 283° West 144 166 1,900 -720 Descending Indianapolis Center
09:09PM 39.9914 -82.8272 274° West 132 152 1,500 -840 Descending Indianapolis Center
09:10PM 39.9919 -82.8514 272° West 135 155 1,100 -780 Descending Indianapolis Center